Time;durP1;ratioP1;P1;durP2;ratioP2;P2;SDS_P1;SDS_P2;PMS_P1;PMS_P2;Temp;Humidity;BMP_temperature;BMP_pressure;BME280_temperature;BME280_humidity;BME280_pressure;Samples;Min_cycle;Max_cycle;Signal;HPM_P1;HPM_P2
2022/09/01 00:01:25;;;;;;;11.13;6.50;;;;;;;22.87;100.00;99744.84;5049759;28;20059;-69
2022/09/01 00:03:51;;;;;;;10.77;5.95;;;;;;;22.84;100.00;99778.81;5043420;28;20553;-69
2022/09/01 00:06:22;;;;;;;10.05;6.00;;;;;;;22.51;100.00;99771.97;5048578;28;20028;-68
2022/09/01 00:08:53;;;;;;;10.88;5.97;;;;;;;22.70;100.00;99766.97;5050156;28;20060;-69
2022/09/01 00:11:20;;;;;;;10.05;5.80;;;;;;;22.35;100.00;99749.06;5048195;28;20474;-68
2022/09/01 00:13:46;;;;;;;8.63;5.43;;;;;;;22.78;100.00;99719.69;5049759;28;20041;-69
2022/09/01 00:16:13;;;;;;;12.35;6.30;;;;;;;22.68;100.00;99765.47;5049983;28;20021;-69
2022/09/01 00:18:44;;;;;;;9.95;6.00;;;;;;;22.37;100.00;99733.38;5049554;28;20049;-68
2022/09/01 00:21:12;;;;;;;12.05;6.30;;;;;;;22.45;100.00;99738.75;5049248;28;20039;-69
2022/09/01 00:23:38;;;;;;;10.05;6.13;;;;;;;22.53;100.00;99769.25;5049259;28;20067;-69
2022/09/01 00:26:04;;;;;;;14.95;6.88;;;;;;;22.12;100.00;99744.88;5048483;28;20052;-72
2022/09/01 00:28:33;;;;;;;10.48;6.20;;;;;;;22.19;100.00;99776.28;5049292;28;20032;-69
2022/09/01 00:30:59;;;;;;;16.25;6.63;;;;;;;21.93;100.00;99744.66;5049240;28;20466;-68
2022/09/01 00:33:25;;;;;;;12.75;6.82;;;;;;;21.89;100.00;99734.69;5049294;28;20029;-70
2022/09/01 00:35:51;;;;;;;12.48;6.38;;;;;;;22.32;100.00;99709.63;5049675;28;20021;-68
2022/09/01 00:38:16;;;;;;;10.32;6.75;;;;;;;22.70;100.00;99756.59;5047658;28;20087;-68
2022/09/01 00:40:42;;;;;;;14.18;7.22;;;;;;;22.08;100.00;99738.31;5049304;28;20029;-72
2022/09/01 00:43:16;;;;;;;13.38;8.20;;;;;;;22.26;100.00;99773.09;5049140;28;20052;-70
2022/09/01 00:45:42;;;;;;;12.70;8.05;;;;;;;21.49;100.00;99721.41;5049078;28;20044;-69
2022/09/01 00:48:08;;;;;;;13.07;7.40;;;;;;;21.93;100.00;99752.44;5049560;28;20024;-70
2022/09/01 00:50:34;;;;;;;12.88;8.07;;;;;;;22.12;100.00;99770.78;5049020;28;20025;-68
2022/09/01 00:52:59;;;;;;;13.07;7.55;;;;;;;22.00;100.00;99761.38;5049490;28;20036;-69
2022/09/01 00:55:29;;;;;;;14.38;8.13;;;;;;;22.00;100.00;99771.75;5049345;28;20025;-72
2022/09/01 00:57:58;;;;;;;12.60;8.15;;;;;;;22.20;100.00;99734.75;5047717;28;20067;-76
2022/09/01 01:00:27;;;;;;;12.75;7.85;;;;;;;22.40;100.00;99767.63;5049124;28;20035;-68
2022/09/01 01:02:55;;;;;;;12.88;7.60;;;;;;;22.38;100.00;99756.56;5049354;28;20031;-68
2022/09/01 01:05:47;;;;;;;11.88;7.53;;;;;;;22.34;100.00;99764.72;5048233;28;20048;-68
2022/09/01 01:08:18;;;;;;;14.88;7.85;;;;;;;22.62;100.00;99763.38;5052650;28;20025;-68
2022/09/01 01:10:44;;;;;;;15.25;7.03;;;;;;;22.27;100.00;99763.56;5050606;28;20059;-68
2022/09/01 01:13:15;;;;;;;9.27;6.70;;;;;;;21.87;100.00;99728.81;5053132;28;20462;-68
2022/09/01 01:15:45;;;;;;;12.05;6.93;;;;;;;22.09;100.00;99758.06;5052255;28;20127;-68
2022/09/01 01:18:12;;;;;;;13.68;6.68;;;;;;;21.84;100.00;99750.59;5052859;28;20029;-68
2022/09/01 01:23:35;;;;;;;11.27;6.32;;;;;;;21.89;100.00;99763.97;5053149;28;20090;-68
2022/09/01 01:26:03;;;;;;;12.27;6.15;;;;;;;21.97;100.00;99709.81;5053359;28;20053;-68
2022/09/01 01:28:30;;;;;;;10.55;6.20;;;;;;;22.65;100.00;99743.19;5051356;28;20063;-71
2022/09/01 01:31:10;;;;;;;7.90;6.40;;;;;;;22.46;100.00;99742.19;5051805;28;20361;-69
2022/09/01 01:33:53;;;;;;;10.13;5.90;;;;;;;22.31;100.00;99710.56;5052402;28;20032;-68
2022/09/01 01:36:31;;;;;;;12.45;6.18;;;;;;;21.96;100.00;99703.03;5053715;28;20024;-69
2022/09/01 01:39:01;;;;;;;11.23;6.45;;;;;;;22.08;100.00;99715.00;5052302;28;20024;-69
2022/09/01 01:41:28;;;;;;;10.73;6.85;;;;;;;21.81;100.00;99745.63;5053322;28;20465;-69
2022/09/01 01:43:57;;;;;;;13.25;6.85;;;;;;;21.43;100.00;99711.53;5053672;28;20111;-68
2022/09/01 01:46:24;;;;;;;14.40;7.07;;;;;;;21.92;100.00;99735.28;5052076;28;20049;-68
2022/09/01 01:48:51;;;;;;;11.95;6.60;;;;;;;21.91;100.00;99710.31;5052966;28;20064;-68
2022/09/01 01:51:19;;;;;;;15.25;7.43;;;;;;;21.86;100.00;99740.09;5053142;28;20439;-68
2022/09/01 01:53:46;;;;;;;9.75;7.13;;;;;;;21.52;100.00;99715.97;5053098;28;20029;-68
2022/09/01 01:56:11;;;;;;;11.45;6.57;;;;;;;21.29;100.00;99706.59;5052804;28;20040;-68
2022/09/01 01:58:38;;;;;;;11.65;6.63;;;;;;;22.02;100.00;99743.13;5053210;28;20033;-68
2022/09/01 02:01:10;;;;;;;10.70;6.88;;;;;;;21.57;100.00;99686.22;5052949;28;20098;-68
2022/09/01 02:03:37;;;;;;;10.65;6.22;;;;;;;21.91;100.00;99731.03;5052833;28;20119;-69
2022/09/01 02:06:08;;;;;;;12.45;6.95;;;;;;;21.62;100.00;99736.78;5052800;28;20041;-68
2022/09/01 02:08:35;;;;;;;8.95;6.80;;;;;;;21.20;100.00;99733.13;5051972;28;20613;-68
2022/09/01 02:11:02;;;;;;;12.05;6.38;;;;;;;21.32;100.00;99740.78;5053191;28;20399;-69
2022/09/01 02:13:31;;;;;;;12.18;6.53;;;;;;;21.81;100.00;99704.22;5052734;28;20082;-74
2022/09/01 02:16:06;;;;;;;12.85;6.90;;;;;;;21.81;100.00;99714.56;5048380;28;20500;-67
2022/09/01 02:18:37;;;;;;;9.65;6.28;;;;;;;22.11;100.00;99719.91;5031413;28;20029;-69
2022/09/01 02:21:08;;;;;;;10.35;6.93;;;;;;;21.34;100.00;99712.22;5032470;28;20059;-70
2022/09/01 02:23:35;;;;;;;12.02;7.35;;;;;;;21.58;100.00;99734.44;5032574;28;20479;-68
2022/09/01 02:26:05;;;;;;;12.27;6.95;;;;;;;21.49;100.00;99736.94;5043605;28;20036;-70
2022/09/01 02:28:35;;;;;;;12.13;7.82;;;;;;;21.11;100.00;99724.31;5046775;28;20411;-68
2022/09/01 02:31:02;;;;;;;15.75;7.22;;;;;;;21.48;100.00;99727.50;5051648;28;20118;-69
2022/09/01 02:33:29;;;;;;;12.40;7.28;;;;;;;21.18;100.00;99738.41;5050797;28;20041;-68
2022/09/01 02:35:57;;;;;;;13.65;7.63;;;;;;;20.98;100.00;99735.63;5052329;28;20061;-68
2022/09/01 02:38:27;;;;;;;13.52;7.57;;;;;;;20.40;100.00;99690.84;5052298;28;20415;-68
2022/09/01 02:40:55;;;;;;;14.32;7.93;;;;;;;20.55;100.00;99668.25;5052176;28;20510;-68
2022/09/01 02:43:20;;;;;;;9.32;7.50;;;;;;;20.78;100.00;99698.34;5052488;28;20029;-68
2022/09/01 02:45:53;;;;;;;16.02;8.00;;;;;;;20.81;100.00;99699.88;5051540;28;20063;-68
2022/09/01 02:48:21;;;;;;;14.80;8.23;;;;;;;20.67;100.00;99713.84;5052438;28;20056;-68
2022/09/01 02:50:48;;;;;;;10.60;7.25;;;;;;;20.71;100.00;99695.41;5050896;28;20492;-68
2022/09/01 02:53:14;;;;;;;17.83;7.38;;;;;;;20.98;100.00;99740.81;5051750;28;20037;-68
2022/09/01 02:55:40;;;;;;;13.32;7.80;;;;;;;20.57;100.00;99744.69;5052188;28;20033;-69
2022/09/01 02:58:09;;;;;;;15.38;7.90;;;;;;;20.93;100.00;99738.59;5044516;28;20059;-68
2022/09/01 03:00:38;;;;;;;17.05;8.13;;;;;;;20.80;100.00;99739.63;5051936;28;20029;-68
2022/09/01 03:03:05;;;;;;;13.60;8.30;;;;;;;20.62;100.00;99732.25;5052096;28;20033;-68
2022/09/01 03:05:33;;;;;;;9.80;7.80;;;;;;;20.58;100.00;99704.19;5051074;28;20025;-68
2022/09/01 03:08:06;;;;;;;11.68;8.93;;;;;;;20.51;100.00;99701.22;5051764;28;20025;-68
2022/09/01 03:10:36;;;;;;;12.18;8.10;;;;;;;21.47;100.00;99736.22;5052086;28;20029;-69
2022/09/01 03:13:07;;;;;;;12.48;8.75;;;;;;;20.85;100.00;99737.50;5050969;28;20090;-67
2022/09/01 03:15:33;;;;;;;9.90;8.02;;;;;;;20.82;100.00;99724.81;5050257;28;20028;-74
2022/09/01 03:17:59;;;;;;;18.98;8.52;;;;;;;21.48;100.00;99748.19;5050700;28;20094;-68
2022/09/01 03:20:26;;;;;;;16.13;8.73;;;;;;;21.13;100.00;99750.88;5051608;28;20112;-73
2022/09/01 03:22:53;;;;;;;14.65;8.60;;;;;;;20.42;100.00;99712.22;5051443;28;20457;-74
2022/09/01 03:25:19;;;;;;;14.35;8.50;;;;;;;20.64;100.00;99748.47;5052390;28;20182;-73
2022/09/01 03:27:46;;;;;;;15.48;8.63;;;;;;;20.34;100.00;99691.28;5051212;28;20479;-72
2022/09/01 03:30:13;;;;;;;16.05;9.30;;;;;;;20.90;100.00;99756.09;5050693;28;20036;-72
2022/09/01 03:32:38;;;;;;;13.32;8.77;;;;;;;20.76;100.00;99754.50;5034950;28;20031;-73
2022/09/01 03:35:05;;;;;;;18.65;8.65;;;;;;;20.39;100.00;99719.38;5051146;28;20112;-75
2022/09/01 03:37:30;;;;;;;16.20;8.57;;;;;;;20.65;100.00;99713.13;5051729;28;20094;-71
2022/09/01 03:39:57;;;;;;;17.60;9.45;;;;;;;20.71;100.00;99704.94;5051339;28;20458;-73
2022/09/01 03:42:24;;;;;;;18.80;9.23;;;;;;;20.72;100.00;99750.50;5050901;28;20479;-75
2022/09/01 03:44:52;;;;;;;17.80;8.63;;;;;;;21.28;100.00;99751.47;5051955;28;20029;-72
2022/09/01 03:47:19;;;;;;;17.17;8.90;;;;;;;21.37;100.00;99719.75;5051357;28;20072;-70
2022/09/01 03:49:48;;;;;;;13.13;8.63;;;;;;;22.02;100.00;99763.84;5051430;28;20033;-71
2022/09/01 03:52:14;;;;;;;19.10;8.38;;;;;;;22.35;100.00;99749.06;5050341;28;20491;-73
2022/09/01 03:54:40;;;;;;;14.45;8.30;;;;;;;21.72;100.00;99730.78;5050854;28;20065;-72
2022/09/01 03:57:08;;;;;;;16.58;9.10;;;;;;;22.08;100.00;99766.78;5050736;28;20029;-74
2022/09/01 03:59:34;;;;;;;17.60;9.75;;;;;;;20.52;100.00;99733.84;5051635;28;20033;-72
2022/09/01 04:02:01;;;;;;;17.42;10.30;;;;;;;20.41;100.00;99769.16;5049958;28;20465;-70
2022/09/01 04:04:31;;;;;;;15.18;9.65;;;;;;;20.38;100.00;99765.03;5050271;28;20415;-72
2022/09/01 04:06:58;;;;;;;19.33;10.10;;;;;;;20.42;100.00;99769.03;5051543;28;20391;-73
2022/09/01 04:09:24;;;;;;;20.67;16.20;;;;;;;20.31;100.00;99750.91;5051953;28;20025;-72
2022/09/01 04:11:50;;;;;;;20.85;15.85;;;;;;;20.12;100.00;99767.78;5051204;28;20029;-74
2022/09/01 04:14:16;;;;;;;16.48;10.13;;;;;;;20.36;100.00;99748.81;5049764;28;20052;-71
2022/09/01 04:19:26;;;;;;;18.40;10.38;;;;;;;19.94;100.00;99757.00;5050719;28;20150;-71
2022/09/01 04:21:55;;;;;;;18.23;9.38;;;;;;;20.16;100.00;99727.91;5051015;28;20039;-70
2022/09/01 04:24:23;;;;;;;18.30;11.70;;;;;;;20.66;100.00;99754.34;5051188;28;20033;-71
2022/09/01 04:26:49;;;;;;;24.58;14.68;;;;;;;20.73;100.00;99758.16;5050233;28;20036;-72
2022/09/01 04:29:26;;;;;;;14.88;9.23;;;;;;;20.17;100.00;99724.38;5049153;28;20033;-70
2022/09/01 04:32:04;;;;;;;19.20;9.55;;;;;;;21.39;100.00;99729.03;5050197;28;20091;-73
2022/09/01 04:34:36;;;;;;;21.35;8.98;;;;;;;20.73;100.00;99760.72;5050425;28;20032;-70
2022/09/01 04:37:13;;;;;;;17.63;10.40;;;;;;;20.01;100.00;99722.06;5049697;28;20038;-68
2022/09/01 04:39:47;;;;;;;21.92;9.43;;;;;;;22.51;100.00;99763.34;5042275;28;20079;-71
2022/09/01 04:42:17;;;;;;;20.35;9.02;;;;;;;23.04;100.00;99770.19;5037427;28;20399;-69
2022/09/01 04:44:45;;;;;;;24.07;9.03;;;;;;;20.75;100.00;99791.63;5085950;28;20033;-69
2022/09/01 04:47:15;;;;;;;19.33;9.35;;;;;;;20.43;100.00;99791.38;5054745;28;20096;-70
2022/09/01 04:49:41;;;;;;;12.35;9.10;;;;;;;20.56;100.00;99783.56;5053507;28;20419;-71
2022/09/01 04:52:06;;;;;;;14.85;8.43;;;;;;;20.58;100.00;99741.16;5053601;28;20093;-70
2022/09/01 04:54:34;;;;;;;15.70;9.00;;;;;;;20.17;100.00;99745.88;5053806;28;20025;-71
2022/09/01 04:56:59;;;;;;;15.88;9.18;;;;;;;20.48;100.00;99753.09;5052724;28;20498;-69
2022/09/01 04:59:26;;;;;;;15.48;9.18;;;;;;;20.33;100.00;99743.03;5054316;28;20025;-69
2022/09/01 05:01:54;;;;;;;12.85;9.07;;;;;;;20.70;100.00;99784.19;5052648;28;20035;-69
2022/09/01 05:04:26;;;;;;;16.95;9.70;;;;;;;20.96;100.00;99768.53;5053950;28;20025;-68
2022/09/01 05:06:58;;;;;;;13.77;9.48;;;;;;;21.38;100.00;99788.66;5053713;28;20032;-70
2022/09/01 05:09:24;;;;;;;17.65;9.52;;;;;;;21.22;100.00;99764.88;5053533;28;20039;-70
2022/09/01 05:11:49;;;;;;;15.48;9.77;;;;;;;21.42;100.00;99756.44;5053621;28;20649;-69
2022/09/01 05:14:17;;;;;;;15.52;9.80;;;;;;;21.78;100.00;99791.63;5053638;28;20021;-69
2022/09/01 05:16:44;;;;;;;19.50;9.85;;;;;;;21.97;100.00;99763.38;5053624;28;20499;-69
2022/09/01 05:19:13;;;;;;;18.25;10.10;;;;;;;22.12;100.00;99757.84;5054349;28;20032;-69
2022/09/01 05:21:46;;;;;;;12.73;8.75;;;;;;;22.25;100.00;99799.94;5054221;28;20036;-69
2022/09/01 05:24:18;;;;;;;14.25;8.75;;;;;;;22.50;100.00;99795.41;5052261;28;20029;-72
2022/09/01 05:26:46;;;;;;;20.05;8.82;;;;;;;22.70;100.00;99750.59;5054069;28;20021;-70
2022/09/01 05:29:14;;;;;;;20.70;9.80;;;;;;;22.98;100.00;99786.28;5052538;28;20035;-75
2022/09/01 05:31:43;;;;;;;17.67;10.15;;;;;;;23.05;100.00;99787.44;5053683;28;20036;-69
2022/09/01 05:34:09;;;;;;;19.38;10.40;;;;;;;23.21;100.00;99761.88;5052219;28;21663;-69
2022/09/01 05:36:39;;;;;;;20.27;11.98;;;;;;;23.67;100.00;99767.44;5053411;28;20629;-71
2022/09/01 05:39:06;;;;;;;18.75;11.73;;;;;;;23.77;100.00;99777.88;5053633;28;20037;-69
2022/09/01 05:41:34;;;;;;;25.08;12.23;;;;;;;23.68;100.00;99755.28;5053351;28;20024;-69
2022/09/01 05:44:02;;;;;;;16.98;10.27;;;;;;;23.68;100.00;99791.63;5053804;28;20029;-69
2022/09/01 05:46:28;;;;;;;18.17;10.15;;;;;;;23.85;100.00;99711.31;5053375;28;20075;-69
2022/09/01 05:48:55;;;;;;;14.57;9.35;;;;;;;24.53;100.00;99782.44;5053681;28;20480;-71
2022/09/01 05:51:25;;;;;;;17.20;8.88;;;;;;;24.66;100.00;99777.78;5053447;28;20028;-71
2022/09/01 05:53:57;;;;;;;16.05;10.27;;;;;;;24.21;100.00;99742.84;5052988;28;20025;-69
2022/09/01 05:56:25;;;;;;;14.35;9.20;;;;;;;25.00;100.00;99766.00;5052103;28;20028;-69
2022/09/01 05:58:51;;;;;;;15.43;8.02;;;;;;;24.50;100.00;99773.09;5053124;28;20124;-69
2022/09/01 06:01:20;;;;;;;13.18;8.25;;;;;;;24.62;100.00;99755.63;5052066;28;20505;-69
2022/09/01 06:03:49;;;;;;;14.43;8.15;;;;;;;24.31;100.00;99770.50;5053225;28;20029;-70
2022/09/01 06:06:15;;;;;;;16.90;8.65;;;;;;;25.23;100.00;99771.72;5051615;28;20057;-72
2022/09/01 06:08:41;;;;;;;10.98;7.00;;;;;;;24.94;100.00;99745.75;5052666;28;20191;-70
2022/09/01 06:11:12;;;;;;;14.98;7.85;;;;;;;25.42;100.00;99758.66;5052208;28;20444;-70
2022/09/01 06:13:41;;;;;;;12.65;8.38;;;;;;;24.35;100.00;99713.88;5052558;28;20036;-70
2022/09/01 06:16:10;;;;;;;13.25;8.20;;;;;;;25.03;100.00;99751.91;5052503;28;20036;-70
2022/09/01 06:18:37;;;;;;;13.68;7.70;;;;;;;25.53;100.00;99754.09;5052385;28;20025;-70
2022/09/01 06:21:07;;;;;;;14.75;7.75;;;;;;;25.36;100.00;99793.06;5052727;28;20029;-70
2022/09/01 06:44:09;;;;;;;16.58;8.40;;;;;;;26.46;100.00;99800.81;5149812;27;20734;-75
2022/09/01 06:46:34;;;;;;;19.23;8.30;;;;;;;26.43;100.00;99756.75;5129689;28;20048;-75
2022/09/01 06:49:02;;;;;;;16.23;8.15;;;;;;;27.31;100.00;99801.88;5128351;28;20537;-74
2022/09/01 06:51:28;;;;;;;11.90;7.13;;;;;;;26.52;100.00;99737.63;5128040;28;20023;-74
2022/09/01 06:53:58;;;;;;;11.07;7.20;;;;;;;26.64;100.00;99752.88;5129273;27;20103;-75
2022/09/01 06:56:30;;;;;;;16.10;8.18;;;;;;;26.89;100.00;99790.47;5127847;28;20080;-77
2022/09/01 06:58:56;;;;;;;11.57;8.57;;;;;;;27.19;100.00;99766.56;5128047;28;20028;-73
2022/09/01 07:01:22;;;;;;;16.30;7.88;;;;;;;27.75;100.00;99789.56;5129500;27;20031;-73
2022/09/01 07:03:50;;;;;;;12.77;7.78;;;;;;;28.24;100.00;99801.88;5129113;27;20118;-74
2022/09/01 07:06:17;;;;;;;17.77;8.00;;;;;;;27.22;100.00;99761.00;5129212;27;20024;-74
2022/09/01 07:08:48;;;;;;;12.65;7.28;;;;;;;27.74;100.00;99806.22;5129174;27;20034;-73
2022/09/01 07:11:24;;;;;;;17.30;7.67;;;;;;;28.24;100.00;99809.72;5129483;27;20484;-73
2022/09/01 07:13:56;;;;;;;11.20;6.82;;;;;;;27.90;100.00;99766.25;5129102;27;20280;-74
2022/09/01 07:16:24;;;;;;;13.45;6.60;;;;;;;28.51;100.00;99768.53;5127901;28;20028;-76
2022/09/01 07:18:51;;;;;;;12.52;6.60;;;;;;;28.57;100.00;99804.56;5128827;27;20023;-74
2022/09/01 07:21:18;;;;;;;13.00;6.40;;;;;;;27.58;100.00;99742.59;5128598;27;20057;-74
2022/09/01 07:23:45;;;;;;;13.23;7.10;;;;;;;28.48;100.00;99795.03;5128403;27;20038;-74
2022/09/01 07:26:11;;;;;;;10.10;6.75;;;;;;;27.88;100.00;99757.75;5127749;28;20059;-74
2022/09/01 07:28:36;;;;;;;11.60;6.50;;;;;;;28.80;100.00;99814.22;5127537;28;20100;-74
2022/09/01 07:31:04;;;;;;;15.68;6.40;;;;;;;28.72;95.75;99691.19;5128812;27;20088;-74
2022/09/01 07:33:32;;;;;;;15.05;6.80;;;;;;;28.44;100.00;99809.44;5128397;27;20027;-73
2022/09/01 07:35:58;;;;;;;12.07;6.47;;;;;;;28.53;97.67;99753.50;5127352;28;20031;-74
2022/09/01 07:38:24;;;;;;;10.60;6.10;;;;;;;28.06;96.76;99716.66;5128551;27;20115;-73
2022/09/01 07:40:53;;;;;;;15.25;6.75;;;;;;;28.76;94.20;99757.94;5128666;27;20088;-73
2022/09/01 07:43:25;;;;;;;14.15;6.55;;;;;;;29.02;93.08;99821.44;5122901;28;20043;-74
2022/09/01 07:45:56;;;;;;;12.80;7.10;;;;;;;28.68;99.64;99773.66;5113478;28;20027;-74
2022/09/01 07:48:25;;;;;;;12.13;7.55;;;;;;;29.39;93.72;99793.91;5114763;28;20092;-74
2022/09/01 07:50:54;;;;;;;9.48;6.85;;;;;;;29.95;86.07;99764.88;5113113;28;20469;-73
2022/09/01 07:53:24;;;;;;;10.82;6.63;;;;;;;29.38;87.53;99708.41;5113877;28;20038;-74
2022/09/01 07:55:51;;;;;;;11.43;6.65;;;;;;;29.05;90.01;99812.44;5114109;28;20027;-75
2022/09/01 07:58:19;;;;;;;11.48;6.38;;;;;;;29.39;89.62;99765.09;5112794;28;20077;-74
2022/09/01 08:00:48;;;;;;;12.73;7.82;;;;;;;29.88;89.18;99754.28;5113984;28;20054;-74
2022/09/01 08:03:25;;;;;;;14.13;7.05;;;;;;;30.90;77.60;99808.28;5114570;28;20118;-74
2022/09/01 08:05:56;;;;;;;15.73;7.55;;;;;;;29.75;87.82;99810.91;5113065;28;20024;-73
2022/09/01 08:08:23;;;;;;;11.18;6.88;;;;;;;30.74;76.78;99790.84;5114337;28;20504;-74
2022/09/01 08:10:48;;;;;;;15.60;7.85;;;;;;;30.47;77.72;99783.47;5114252;28;20979;-73
2022/09/01 08:13:15;;;;;;;11.38;6.50;;;;;;;30.30;77.04;99768.84;5113132;28;20555;-73
2022/09/01 08:15:40;;;;;;;10.95;6.40;;;;;;;30.04;76.00;99706.16;5114118;28;20024;-73
2022/09/01 08:18:07;;;;;;;12.85;6.35;;;;;;;31.19;76.57;99750.53;5112637;28;20027;-73
2022/09/01 08:20:38;;;;;;;13.63;6.40;;;;;;;30.03;78.66;99803.41;5112817;28;20027;-73
2022/09/01 08:23:04;;;;;;;17.45;7.15;;;;;;;30.81;80.53;99773.34;5113808;27;20026;-74
2022/09/01 08:25:36;;;;;;;15.60;6.50;;;;;;;30.17;77.19;99758.88;5114455;28;20023;-76
2022/09/01 08:28:02;;;;;;;13.75;6.47;;;;;;;31.05;74.92;99781.06;5112481;28;20043;-74
2022/09/01 08:30:28;;;;;;;15.57;6.45;;;;;;;29.74;78.41;99793.50;5112473;28;20036;-74
2022/09/01 08:32:54;;;;;;;13.43;6.57;;;;;;;30.92;74.53;99780.03;5112414;28;20488;-74
2022/09/01 08:35:19;;;;;;;14.93;6.22;;;;;;;30.05;77.64;99686.00;5111944;28;20070;-74
2022/09/01 08:37:45;;;;;;;14.35;6.00;;;;;;;31.00;74.44;99774.72;5113573;28;20408;-73
2022/09/01 08:40:14;;;;;;;12.43;6.43;;;;;;;30.61;74.66;99775.66;5113222;28;20455;-74
2022/09/01 08:43:04;;;;;;;13.50;6.38;;;;;;;31.42;70.37;99786.28;5113268;28;20097;-74
2022/09/01 08:45:44;;;;;;;11.68;6.00;;;;;;;31.46;69.32;99784.94;5111769;28;20028;-75
2022/09/01 08:48:38;;;;;;;15.57;6.10;;;;;;;32.01;65.72;99773.91;5113049;28;20084;-75
2022/09/01 08:51:18;;;;;;;12.88;5.93;;;;;;;31.73;64.04;99777.41;5104373;28;20036;-73
2022/09/01 08:53:48;;;;;;;14.15;6.15;;;;;;;31.36;66.36;99773.00;5111766;28;20063;-73
2022/09/01 08:56:17;;;;;;;13.40;5.70;;;;;;;31.33;61.85;99770.75;5110774;28;20036;-75
2022/09/01 08:58:43;;;;;;;13.70;5.10;;;;;;;32.05;59.39;99769.91;5112822;28;20032;-74
2022/09/01 09:01:19;;;;;;;11.55;5.10;;;;;;;31.77;60.11;99750.56;5111419;28;20035;-73
2022/09/01 09:03:47;;;;;;;10.95;5.47;;;;;;;31.60;60.47;99772.78;5111291;28;20489;-74
2022/09/01 09:06:23;;;;;;;12.40;6.00;;;;;;;31.80;63.39;99729.13;5111266;28;20114;-70
2022/09/01 09:09:02;;;;;;;12.68;5.82;;;;;;;32.26;63.87;99751.53;5113180;28;20058;-75
2022/09/01 09:11:33;;;;;;;13.50;5.95;;;;;;;31.81;61.68;99756.25;5111533;28;20028;-73
2022/09/01 09:13:59;;;;;;;11.23;5.50;;;;;;;31.95;59.51;99750.19;5111915;28;20083;-76
2022/09/01 09:16:34;;;;;;;14.27;5.20;;;;;;;31.00;61.91;99667.78;5112659;28;20491;-74
2022/09/01 09:19:17;;;;;;;12.90;5.78;;;;;;;32.23;61.85;99738.72;5112556;28;20023;-76
2022/09/01 09:21:45;;;;;;;11.68;5.55;;;;;;;31.06;59.62;99688.09;5113004;28;20034;-74
2022/09/01 09:24:22;;;;;;;11.23;5.30;;;;;;;32.62;60.97;99746.22;5112663;28;20059;-75
2022/09/01 09:26:49;;;;;;;14.85;5.70;;;;;;;31.95;58.07;99671.25;5112938;28;20104;-76
2022/09/01 09:29:15;;;;;;;13.10;5.35;;;;;;;32.69;57.85;99727.81;5111523;28;20027;-74
2022/09/01 09:31:47;;;;;;;10.55;5.32;;;;;;;33.03;56.18;99675.19;5111360;28;20124;-75
2022/09/01 09:34:32;;;;;;;16.67;5.55;;;;;;;32.52;54.32;99623.75;5112513;28;20027;-74
2022/09/01 09:37:22;;;;;;;13.40;5.50;;;;;;;31.75;58.67;99723.63;5111114;28;20027;-77
2022/09/01 09:40:09;;;;;;;12.15;5.53;;;;;;;31.89;57.65;99720.09;5098897;28;20036;-74
2022/09/01 09:42:39;;;;;;;14.00;5.50;;;;;;;32.31;57.42;99620.13;5112374;28;20122;-78
2022/09/01 09:45:21;;;;;;;11.87;5.70;;;;;;;32.17;57.77;99647.34;5111524;28;20417;-75
2022/09/01 09:47:46;;;;;;;11.45;5.60;;;;;;;32.48;57.94;99704.16;5111208;28;20685;-75
2022/09/01 09:50:18;;;;;;;16.90;5.97;;;;;;;31.56;57.25;99719.72;5112166;28;20084;-75
2022/09/01 09:52:45;;;;;;;12.20;6.07;;;;;;;32.49;54.83;99656.56;5110770;28;20417;-74
2022/09/01 09:55:27;;;;;;;11.55;5.60;;;;;;;33.28;54.79;99707.16;5111707;27;20034;-74
2022/09/01 09:57:59;;;;;;;12.75;5.80;;;;;;;33.17;53.22;99698.81;5110221;28;20550;-77
2022/09/01 10:00:35;;;;;;;12.55;5.60;;;;;;;31.55;55.19;99704.94;5110737;28;20107;-75
2022/09/01 10:03:06;;;;;;;15.05;5.95;;;;;;;32.95;52.63;99681.41;5111933;28;20063;-75
2022/09/01 10:05:41;;;;;;;10.25;5.57;;;;;;;33.18;51.83;99686.41;5110653;28;20405;-74
2022/09/01 10:08:11;;;;;;;12.27;5.53;;;;;;;31.28;57.67;99696.88;5111944;28;20027;-74
2022/09/01 10:10:43;;;;;;;14.07;5.78;;;;;;;32.53;55.97;99683.31;5111463;28;20451;-74
2022/09/01 10:13:21;;;;;;;12.13;5.20;;;;;;;33.25;50.82;99689.91;5110311;28;20183;-75
2022/09/01 10:15:49;;;;;;;15.88;6.13;;;;;;;33.08;51.58;99625.34;5111372;28;20027;-76
2022/09/01 10:18:19;;;;;;;10.60;5.60;;;;;;;32.99;50.39;99627.31;5111565;28;20064;-76
2022/09/01 10:20:56;;;;;;;14.05;5.57;;;;;;;32.99;52.42;99644.97;5111591;28;20032;-75
2022/09/01 10:23:23;;;;;;;14.10;5.47;;;;;;;33.68;51.71;99664.94;5111338;28;20494;-74
2022/09/01 10:25:52;;;;;;;14.52;5.57;;;;;;;32.50;54.01;99628.41;5111582;28;20118;-75
2022/09/01 10:28:23;;;;;;;15.18;5.70;;;;;;;32.91;51.95;99680.16;5110284;28;20088;-74
2022/09/01 10:30:51;;;;;;;17.00;6.25;;;;;;;33.71;50.01;99637.34;5110050;28;20034;-74
2022/09/01 10:33:19;;;;;;;11.00;5.15;;;;;;;34.23;49.72;99681.53;5111141;28;20039;-75
2022/09/01 10:35:49;;;;;;;14.07;5.30;;;;;;;33.59;49.25;99674.06;5110019;28;20032;-74
2022/09/01 10:38:19;;;;;;;13.40;5.53;;;;;;;34.26;48.24;99663.44;5111255;28;20024;-74
2022/09/01 10:40:49;;;;;;;15.48;5.45;;;;;;;33.67;48.71;99668.63;5111377;28;20055;-76
2022/09/01 10:43:34;;;;;;;12.32;7.50;;;;;;;33.81;48.14;99675.53;5111452;28;20078;-74
2022/09/01 10:46:06;;;;;;;11.70;5.38;;;;;;;33.43;47.94;99661.19;5111158;28;20119;-74
2022/09/01 10:48:34;;;;;;;13.35;6.28;;;;;;;32.30;49.57;99663.28;5110237;28;20027;-74
2022/09/01 10:51:12;;;;;;;11.60;5.03;;;;;;;32.39;50.04;99662.13;5110146;28;20031;-75
2022/09/01 10:53:45;;;;;;;7.90;4.60;;;;;;;32.40;48.77;99655.03;5111563;28;20032;-75
2022/09/01 10:56:43;;;;;;;10.95;5.38;;;;;;;34.00;47.22;99647.56;5111649;28;20055;-75
2022/09/01 10:59:20;;;;;;;11.80;5.57;;;;;;;33.98;45.02;99650.44;5111635;28;20032;-75
2022/09/01 11:01:46;;;;;;;11.70;4.57;;;;;;;33.00;45.53;99639.47;5111383;28;20031;-74
2022/09/01 11:04:15;;;;;;;8.60;5.10;;;;;;;33.26;44.87;99641.41;5111650;28;20023;-80
2022/09/01 11:06:40;;;;;;;12.75;5.05;;;;;;;33.64;44.70;99632.06;5110007;28;20032;-74
2022/09/01 11:09:20;;;;;;;11.02;4.82;;;;;;;32.59;48.36;99617.53;5110912;28;20057;-74
2022/09/01 11:12:17;;;;;;;13.82;5.50;;;;;;;32.09;47.68;99630.91;5111403;28;20031;-75
2022/09/01 11:14:47;;;;;;;10.02;5.13;;;;;;;32.01;48.32;99596.81;5111166;28;20138;-76
2022/09/01 11:17:16;;;;;;;12.50;4.90;;;;;;;33.37;46.18;99632.16;5110899;28;20036;-78
2022/09/01 11:19:44;;;;;;;10.55;5.35;;;;;;;33.36;44.70;99636.59;5112508;28;20023;-75
2022/09/01 11:22:13;;;;;;;14.13;5.10;;;;;;;33.45;43.46;99631.97;5113930;28;20110;-74
2022/09/01 11:24:38;;;;;;;10.70;5.68;;;;;;;33.28;45.33;99631.50;5115422;28;20024;-74
2022/09/01 11:27:05;;;;;;;12.02;5.30;;;;;;;33.62;44.71;99622.72;5113803;28;20122;-74
2022/09/01 11:29:52;;;;;;;9.90;5.10;;;;;;;33.36;43.65;99623.41;5114843;28;20032;-76
2022/09/01 11:32:20;;;;;;;11.68;4.55;;;;;;;33.39;43.52;99559.75;5114215;28;20031;-79
2022/09/01 11:34:47;;;;;;;12.05;5.05;;;;;;;33.52;43.48;99564.25;5113163;28;20038;-77
2022/09/01 11:37:20;;;;;;;11.90;4.93;;;;;;;33.10;44.03;99563.50;5114312;28;20027;-76
2022/09/01 11:39:53;;;;;;;15.50;5.45;;;;;;;33.31;44.84;99559.91;5114847;28;20481;-75
2022/09/01 12:01:35;;;;;;;10.90;4.60;;;;;;;34.07;41.82;99601.69;5097830;27;1529445;-75
2022/09/01 12:04:22;;;;;;;10.48;4.65;;;;;;;33.89;41.06;99571.63;5129954;28;20070;-76
2022/09/01 12:07:10;;;;;;;10.68;4.65;;;;;;;33.27;42.85;99592.97;5129647;28;20023;-75
2022/09/01 12:09:40;;;;;;;10.93;4.55;;;;;;;34.17;40.22;99563.50;5129393;28;20032;-75
2022/09/01 12:12:27;;;;;;;10.38;4.57;;;;;;;32.55;43.89;99602.28;5129711;28;20038;-76
2022/09/01 12:14:57;;;;;;;8.68;4.82;;;;;;;31.82;47.22;99595.59;5129474;28;20042;-75
2022/09/01 12:17:23;;;;;;;10.10;5.20;;;;;;;32.14;47.45;99544.28;5129574;28;20027;-75